Time;durP1;ratioP1;P1;durP2;ratioP2;P2;SDS_P1;SDS_P2;PMS_P1;PMS_P2;Temp;Humidity;BMP_temperature;BMP_pressure;BME280_temperature;BME280_humidity;BME280_pressure;Samples;Min_cycle;Max_cycle;Signal;HPM_P1;HPM_P2
2022/03/23 00:02:07;;;;;;;34.07;21.17;;;8.30;47.70;;;;;;4998097;28;20184;-65
2022/03/23 00:04:32;;;;;;;29.40;19.77;;;8.30;47.80;;;;;;5013369;28;20689;-64
2022/03/23 00:06:59;;;;;;;35.80;17.70;;;8.20;47.90;;;;;;5016361;28;20752;-65
2022/03/23 00:09:26;;;;;;;31.50;17.67;;;8.20;48.00;;;;;;5013039;28;20758;-67
2022/03/23 00:11:52;;;;;;;27.27;18.03;;;8.20;48.40;;;;;;5018412;28;20188;-66
2022/03/23 00:14:18;;;;;;;26.87;16.40;;;8.20;48.10;;;;;;5017305;28;20632;-67
2022/03/23 00:16:44;;;;;;;24.10;16.40;;;8.10;48.10;;;;;;5016518;28;20733;-65
2022/03/23 00:19:10;;;;;;;24.40;16.40;;;8.00;47.90;;;;;;5012092;28;20209;-65
2022/03/23 00:21:36;;;;;;;23.53;16.53;;;8.00;48.30;;;;;;5017581;28;20610;-67
2022/03/23 00:24:02;;;;;;;29.90;18.37;;;7.80;48.50;;;;;;5009072;28;20205;-65
2022/03/23 00:26:27;;;;;;;29.93;18.20;;;7.80;49.00;;;;;;5008925;28;20698;-64
2022/03/23 00:28:54;;;;;;;29.60;22.00;;;7.80;49.00;;;;;;5012035;28;20203;-65
2022/03/23 00:31:20;;;;;;;28.17;18.33;;;7.80;49.20;;;;;;5013084;28;20544;-64
2022/03/23 00:33:47;;;;;;;24.40;17.57;;;7.80;49.20;;;;;;5012280;28;20279;-68
2022/03/23 00:36:12;;;;;;;24.33;17.00;;;7.80;49.60;;;;;;5017388;28;20206;-69
2022/03/23 00:38:38;;;;;;;27.87;19.27;;;7.70;48.90;;;;;;5013017;28;20199;-65
2022/03/23 00:41:04;;;;;;;27.50;18.43;;;7.70;49.00;;;;;;5012403;28;20207;-66
2022/03/23 00:43:30;;;;;;;25.73;17.97;;;7.60;48.80;;;;;;5013707;28;20196;-66
2022/03/23 00:45:56;;;;;;;22.87;17.67;;;7.60;49.00;;;;;;5014020;28;20211;-67
2022/03/23 00:48:21;;;;;;;26.37;18.03;;;7.60;49.20;;;;;;5015446;28;20208;-65
2022/03/23 00:50:47;;;;;;;26.83;17.77;;;7.40;49.30;;;;;;4988940;28;20303;-65
2022/03/23 00:53:13;;;;;;;23.33;16.97;;;7.30;49.60;;;;;;5012918;28;20236;-66
2022/03/23 00:55:40;;;;;;;20.50;16.17;;;7.30;49.60;;;;;;5013467;28;20224;-65
2022/03/23 00:58:05;;;;;;;22.70;16.57;;;7.30;50.00;;;;;;5014067;28;20186;-66
2022/03/23 01:00:31;;;;;;;22.10;17.13;;;7.30;50.60;;;;;;5014413;28;20192;-66
2022/03/23 01:02:56;;;;;;;29.23;18.60;;;7.40;50.00;;;;;;5015567;28;20190;-68
2022/03/23 01:05:22;;;;;;;32.67;19.47;;;7.40;50.20;;;;;;5013900;28;20256;-68
2022/03/23 01:07:47;;;;;;;29.73;18.77;;;7.40;50.30;;;;;;5017065;28;20642;-68
2022/03/23 01:10:14;;;;;;;27.23;17.50;;;7.40;50.50;;;;;;5016406;28;20615;-66
2022/03/23 01:12:41;;;;;;;26.30;18.43;;;7.40;50.20;;;;;;5020508;28;20668;-66
2022/03/23 01:15:09;;;;;;;24.87;18.03;;;7.40;50.50;;;;;;5017720;28;20243;-64
2022/03/23 01:17:35;;;;;;;28.73;19.43;;;7.40;50.30;;;;;;5014769;28;20274;-65
2022/03/23 01:20:03;;;;;;;31.00;18.37;;;7.10;50.60;;;;;;5010268;28;20241;-66
2022/03/23 01:22:28;;;;;;;26.07;17.27;;;7.10;50.80;;;;;;5014078;28;20677;-67
2022/03/23 01:24:54;;;;;;;25.33;17.30;;;7.00;50.80;;;;;;5016727;28;20211;-67
2022/03/23 01:27:19;;;;;;;24.80;19.17;;;7.00;50.80;;;;;;5010532;28;20720;-66
2022/03/23 01:29:44;;;;;;;23.80;16.60;;;7.10;51.00;;;;;;5011790;28;20207;-69
2022/03/23 01:32:10;;;;;;;26.33;18.13;;;7.10;51.20;;;;;;5016806;28;20268;-64
2022/03/23 01:34:35;;;;;;;22.17;17.27;;;7.10;51.30;;;;;;5022162;28;20207;-64
2022/03/23 01:37:02;;;;;;;26.83;17.50;;;7.00;51.30;;;;;;5016830;28;20754;-65
2022/03/23 01:39:27;;;;;;;25.73;16.97;;;7.00;51.10;;;;;;5019353;28;20300;-66
2022/03/23 01:41:53;;;;;;;26.00;17.13;;;7.00;51.10;;;;;;5018748;28;20314;-65
2022/03/23 01:44:21;;;;;;;24.60;17.47;;;6.90;50.90;;;;;;5019456;28;20630;-64
2022/03/23 01:47:08;;;;;;;22.10;16.50;;;6.80;51.10;;;;;;5019895;28;20206;-71
2022/03/23 01:49:36;;;;;;;29.73;17.03;;;6.80;51.30;;;;;;5019141;28;20208;-69
2022/03/23 01:52:04;;;;;;;22.33;16.60;;;6.60;51.90;;;;;;5019311;28;20211;-70
2022/03/23 01:54:30;;;;;;;27.13;17.33;;;6.50;52.10;;;;;;5017883;28;20196;-68
2022/03/23 01:56:57;;;;;;;24.53;18.17;;;6.50;52.60;;;;;;5016247;28;20193;-69
2022/03/23 01:59:23;;;;;;;23.47;16.70;;;6.40;52.70;;;;;;5021925;28;20196;-68
2022/03/23 02:01:49;;;;;;;29.00;18.27;;;6.50;52.60;;;;;;5017910;28;20198;-69
2022/03/23 02:04:15;;;;;;;26.77;16.70;;;6.60;52.30;;;;;;5019650;28;20191;-74
2022/03/23 02:06:41;;;;;;;29.40;19.03;;;6.70;52.10;;;;;;5013172;28;20208;-67
2022/03/23 02:09:06;;;;;;;27.10;18.50;;;6.80;51.90;;;;;;5014605;28;20292;-67
2022/03/23 02:11:36;;;;;;;29.20;18.27;;;6.80;52.10;;;;;;5007502;28;20211;-67
2022/03/23 02:14:02;;;;;;;30.17;18.93;;;6.80;52.30;;;;;;5019309;28;20190;-67
2022/03/23 02:16:27;;;;;;;30.33;19.30;;;6.80;52.60;;;;;;5009560;28;20204;-80
2022/03/23 02:18:53;;;;;;;20.73;17.57;;;6.80;52.90;;;;;;5024593;28;20219;-78
2022/03/23 02:21:18;;;;;;;26.47;18.73;;;6.70;52.90;;;;;;5008545;28;20254;-71
2022/03/23 02:23:44;;;;;;;28.23;19.23;;;6.70;53.80;;;;;;5014172;28;20195;-77
2022/03/23 02:26:09;;;;;;;26.43;17.93;;;6.70;53.80;;;;;;5007098;28;20336;-77
2022/03/23 02:28:36;;;;;;;27.00;18.00;;;6.60;53.60;;;;;;5024557;28;20212;-79
2022/03/23 02:31:03;;;;;;;24.87;17.67;;;6.50;53.70;;;;;;5026137;28;20208;-79
2022/03/23 02:33:28;;;;;;;25.97;17.33;;;6.40;53.70;;;;;;5023605;28;20287;-77
2022/03/23 02:35:54;;;;;;;25.73;17.37;;;6.30;54.00;;;;;;5025562;28;20286;-77
2022/03/23 02:38:20;;;;;;;32.13;18.17;;;6.30;54.30;;;;;;5010252;28;20252;-76
2022/03/23 02:40:46;;;;;;;24.70;17.70;;;6.40;54.60;;;;;;5006870;28;20210;-75
2022/03/23 02:43:12;;;;;;;28.53;18.30;;;6.40;54.30;;;;;;5023287;28;20199;-78
2022/03/23 02:45:37;;;;;;;27.30;18.17;;;6.40;54.00;;;;;;5006678;28;20200;-72
2022/03/23 02:48:04;;;;;;;25.27;17.57;;;6.50;53.60;;;;;;5008417;28;20180;-72
2022/03/23 02:50:30;;;;;;;26.47;16.57;;;6.40;53.60;;;;;;5010433;28;20309;-72
2022/03/23 03:04:10;;;;;;;24.93;17.07;;;6.30;54.10;;;;;;5020389;28;20202;-70
2022/03/23 03:06:35;;;;;;;23.50;17.40;;;6.30;54.70;;;;;;5008545;28;20283;-70
2022/03/23 03:09:01;;;;;;;25.30;16.97;;;6.30;54.70;;;;;;5015415;28;20219;-70
2022/03/23 03:11:26;;;;;;;23.63;16.50;;;6.20;54.90;;;;;;5014979;28;20196;-69
2022/03/23 03:13:52;;;;;;;28.50;16.90;;;6.00;55.10;;;;;;5009388;28;20204;-69
2022/03/23 03:16:19;;;;;;;26.87;17.93;;;6.10;55.70;;;;;;5013578;28;20204;-69
2022/03/23 03:18:46;;;;;;;25.10;16.57;;;6.10;55.60;;;;;;5019819;28;20200;-69
2022/03/23 03:21:12;;;;;;;29.47;18.30;;;6.10;55.40;;;;;;5005451;28;20295;-71
2022/03/23 03:23:41;;;;;;;30.30;17.73;;;5.90;55.30;;;;;;5010723;28;20759;-75
2022/03/23 03:26:07;;;;;;;24.97;18.30;;;5.70;56.10;;;;;;5009170;28;20314;-76
2022/03/23 03:28:34;;;;;;;25.47;16.90;;;5.80;56.50;;;;;;5023278;28;20208;-75
2022/03/23 03:31:01;;;;;;;23.43;16.30;;;5.80;56.30;;;;;;5018415;28;20207;-68
2022/03/23 03:33:27;;;;;;;31.70;17.27;;;5.90;56.10;;;;;;5012330;28;20730;-72
2022/03/23 03:35:52;;;;;;;25.03;17.20;;;5.90;56.10;;;;;;5016804;28;20279;-72
2022/03/23 03:38:18;;;;;;;24.13;15.53;;;5.90;56.10;;;;;;5009636;28;20615;-72
2022/03/23 03:40:45;;;;;;;23.83;16.63;;;6.00;56.50;;;;;;5015525;28;20214;-72
2022/03/23 03:43:10;;;;;;;27.40;16.03;;;6.00;55.90;;;;;;5015682;28;20246;-73
2022/03/23 03:45:36;;;;;;;20.80;15.73;;;6.00;55.70;;;;;;5008020;28;20437;-70
2022/03/23 03:48:01;;;;;;;21.90;15.93;;;5.90;55.30;;;;;;5014882;28;20295;-72
2022/03/23 03:50:27;;;;;;;26.70;17.13;;;5.90;55.40;;;;;;5012781;28;20306;-71
2022/03/23 03:52:52;;;;;;;22.57;15.67;;;5.80;55.60;;;;;;5021659;28;20207;-71
2022/03/23 03:55:18;;;;;;;26.27;17.03;;;5.80;56.00;;;;;;5007056;28;20596;-71
2022/03/23 03:57:43;;;;;;;26.17;16.87;;;5.80;56.10;;;;;;5005595;28;20204;-71
2022/03/23 04:00:11;;;;;;;23.40;16.03;;;5.80;56.20;;;;;;5011356;28;20204;-70
2022/03/23 04:02:36;;;;;;;26.67;16.33;;;5.80;56.60;;;;;;5005236;28;20291;-70
2022/03/23 04:05:02;;;;;;;22.90;15.63;;;5.70;56.90;;;;;;5020906;28;20279;-70
2022/03/23 04:07:28;;;;;;;27.53;16.33;;;5.70;56.90;;;;;;5018660;28;20577;-70
2022/03/23 04:09:53;;;;;;;25.10;16.27;;;5.60;56.90;;;;;;5009918;28;20219;-70
2022/03/23 04:12:18;;;;;;;22.90;16.40;;;5.40;57.20;;;;;;5005531;28;20250;-72
2022/03/23 04:14:46;;;;;;;24.60;16.70;;;5.50;58.20;;;;;;5015564;28;20722;-73
2022/03/23 04:17:11;;;;;;;22.33;16.77;;;5.50;58.10;;;;;;5015920;28;20706;-72
2022/03/23 04:19:36;;;;;;;24.77;17.93;;;5.40;58.50;;;;;;5017211;28;20267;-76
2022/03/23 04:22:02;;;;;;;24.53;16.10;;;5.40;58.00;;;;;;5005528;28;20210;-77
2022/03/23 04:24:27;;;;;;;23.83;16.03;;;5.40;58.20;;;;;;5020307;28;20811;-76
2022/03/23 04:26:53;;;;;;;23.87;16.77;;;5.40;58.40;;;;;;5014933;28;20332;-77
2022/03/23 04:29:18;;;;;;;21.77;15.87;;;5.50;58.50;;;;;;5018547;28;20317;-75
2022/03/23 04:31:44;;;;;;;24.07;16.70;;;5.50;58.20;;;;;;5016032;28;20188;-73
2022/03/23 04:34:09;;;;;;;23.83;15.90;;;5.50;58.20;;;;;;5006704;28;20160;-73
2022/03/23 04:36:35;;;;;;;24.63;14.83;;;5.50;58.40;;;;;;5014940;28;20216;-75
2022/03/23 04:39:00;;;;;;;26.97;16.63;;;5.40;58.00;;;;;;5014885;28;20205;-74
2022/03/23 04:41:26;;;;;;;21.33;16.23;;;5.40;58.00;;;;;;5012121;28;20675;-74
2022/03/23 04:43:51;;;;;;;25.03;15.77;;;5.30;58.30;;;;;;5014530;28;20753;-74
2022/03/23 04:46:17;;;;;;;23.87;16.53;;;5.30;58.50;;;;;;5006925;28;20180;-74
2022/03/23 04:48:42;;;;;;;25.67;16.93;;;5.30;58.50;;;;;;5017842;28;20307;-75
2022/03/23 04:51:08;;;;;;;31.77;15.93;;;5.30;58.70;;;;;;5007469;28;20209;-74
2022/03/23 04:53:33;;;;;;;24.83;15.33;;;5.30;58.70;;;;;;5020784;28;20278;-74
2022/03/23 04:55:59;;;;;;;22.03;14.67;;;5.20;58.80;;;;;;5012934;28;20205;-74
2022/03/23 04:58:25;;;;;;;25.70;16.30;;;5.10;59.20;;;;;;5010784;28;20267;-73
2022/03/23 05:00:50;;;;;;;20.90;15.10;;;5.20;59.60;;;;;;5006135;28;20246;-74
2022/03/23 05:03:16;;;;;;;25.20;16.47;;;5.20;59.70;;;;;;5007257;28;20203;-73
2022/03/23 05:05:41;;;;;;;29.50;16.47;;;5.20;59.10;;;;;;5006510;28;20203;-74
2022/03/23 05:08:07;;;;;;;25.40;16.33;;;5.20;59.00;;;;;;5012894;28;20658;-74
2022/03/23 05:10:32;;;;;;;25.27;16.37;;;5.20;58.70;;;;;;5006582;28;20587;-75
2022/03/23 05:12:58;;;;;;;27.33;16.47;;;5.20;58.60;;;;;;5007483;28;20243;-77
2022/03/23 05:15:23;;;;;;;27.30;17.23;;;5.20;58.80;;;;;;5016220;28;20196;-76
2022/03/23 05:17:49;;;;;;;32.17;16.40;;;5.30;59.20;;;;;;5013613;28;20199;-75
2022/03/23 05:20:17;;;;;;;22.30;15.87;;;5.20;59.40;;;;;;5015614;28;20207;-74
2022/03/23 05:22:43;;;;;;;26.13;16.57;;;5.10;59.40;;;;;;5012923;28;20191;-77
2022/03/23 05:25:09;;;;;;;26.77;16.57;;;5.10;59.60;;;;;;5014783;28;20265;-75
2022/03/23 05:27:37;;;;;;;24.43;15.13;;;5.20;59.80;;;;;;5022090;28;20195;-74
2022/03/23 05:30:07;;;;;;;24.97;15.47;;;5.20;59.60;;;;;;5012192;28;20227;-76
2022/03/23 05:32:32;;;;;;;28.00;16.57;;;5.20;59.60;;;;;;5011459;28;20195;-76
2022/03/23 05:34:58;;;;;;;23.20;15.20;;;5.10;59.60;;;;;;5004560;28;20208;-74
2022/03/23 05:37:23;;;;;;;22.10;16.50;;;5.10;60.10;;;;;;5007742;28;20190;-75
2022/03/23 05:39:49;;;;;;;23.83;15.00;;;5.20;59.90;;;;;;5022595;28;20253;-76
2022/03/23 05:42:15;;;;;;;24.40;16.93;;;5.20;60.00;;;;;;5009615;28;20216;-76
2022/03/23 05:44:41;;;;;;;25.97;15.67;;;5.30;59.80;;;;;;5004083;28;20207;-76
2022/03/23 05:47:06;;;;;;;26.63;17.13;;;5.30;60.10;;;;;;5014352;28;20184;-77
2022/03/23 05:49:32;;;;;;;27.53;17.50;;;5.20;59.80;;;;;;5014218;28;20204;-77
2022/03/23 05:51:58;;;;;;;27.33;19.17;;;5.20;59.50;;;;;;5008061;28;20219;-78
2022/03/23 05:54:24;;;;;;;31.43;18.97;;;5.20;59.90;;;;;;5016993;28;20200;-77
2022/03/23 05:56:50;;;;;;;30.37;17.30;;;5.10;60.30;;;;;;5005586;28;20522;-78
2022/03/23 05:59:16;;;;;;;29.10;19.90;;;5.20;60.80;;;;;;5022581;28;20187;-77
2022/03/23 06:01:42;;;;;;;33.30;19.27;;;5.30;60.90;;;;;;5018123;28;20274;-79
2022/03/23 06:04:08;;;;;;;34.40;18.47;;;5.30;61.30;;;;;;5020685;28;20678;-78
2022/03/23 06:06:34;;;;;;;27.40;18.97;;;5.30;61.00;;;;;;5019943;28;20192;-78
2022/03/23 06:08:59;;;;;;;36.60;19.13;;;5.30;61.10;;;;;;5003436;28;20204;-75
2022/03/23 06:11:25;;;;;;;34.70;18.40;;;5.20;60.20;;;;;;5014161;28;20637;-77
2022/03/23 06:13:50;;;;;;;26.60;17.53;;;5.10;60.80;;;;;;5007575;28;20198;-76
2022/03/23 06:16:16;;;;;;;29.20;18.03;;;5.00;61.30;;;;;;5005628;28;20971;-77
2022/03/23 06:18:42;;;;;;;36.87;19.93;;;5.10;61.30;;;;;;5025685;28;20234;-78
2022/03/23 06:21:08;;;;;;;25.47;18.03;;;5.10;61.90;;;;;;5015222;28;20204;-78
2022/03/23 06:23:34;;;;;;;30.50;19.33;;;5.20;62.00;;;;;;5039219;28;20230;-77
2022/03/23 06:26:00;;;;;;;27.27;17.30;;;5.30;62.00;;;;;;5029804;28;20249;-77
2022/03/23 06:28:25;;;;;;;39.83;25.37;;;5.40;61.90;;;;;;5033865;28;20187;-77
2022/03/23 06:30:52;;;;;;;27.13;19.47;;;5.50;62.20;;;;;;5021576;28;20204;-76
2022/03/23 06:33:19;;;;;;;25.87;17.80;;;5.60;61.80;;;;;;5021314;28;20210;-76
2022/03/23 06:35:45;;;;;;;29.80;18.73;;;5.70;60.30;;;;;;5007449;28;20219;-75
2022/03/23 06:38:11;;;;;;;30.37;18.97;;;5.80;61.10;;;;;;5016991;28;20670;-75
2022/03/23 06:40:37;;;;;;;34.33;17.43;;;5.90;61.60;;;;;;5018819;28;20191;-76
2022/03/23 06:43:02;;;;;;;23.73;16.03;;;6.00;61.40;;;;;;5015640;28;20642;-79
2022/03/23 06:45:29;;;;;;;29.17;17.37;;;6.10;61.30;;;;;;5019115;28;20188;-78
2022/03/23 06:47:55;;;;;;;29.33;17.90;;;6.10;60.00;;;;;;5018682;28;20238;-78
2022/03/23 06:50:20;;;;;;;24.33;17.17;;;6.10;59.90;;;;;;5007895;28;20582;-80
2022/03/23 06:52:46;;;;;;;30.07;18.40;;;6.20;59.70;;;;;;5008885;28;20448;-78
2022/03/23 06:55:11;;;;;;;25.27;17.13;;;6.20;59.80;;;;;;5026145;28;20203;-79
2022/03/23 06:57:37;;;;;;;30.23;17.97;;;6.30;59.90;;;;;;5026014;28;20196;-80
2022/03/23 07:00:12;;;;;;;31.77;18.93;;;6.30;59.90;;;;;;5006943;28;20647;-80
2022/03/23 07:02:42;;;;;;;25.03;16.80;;;6.50;60.90;;;;;;5020650;28;20210;-77
2022/03/23 07:05:09;;;;;;;28.97;17.23;;;6.60;61.30;;;;;;5016678;28;20243;-75
2022/03/23 07:07:35;;;;;;;27.83;17.10;;;6.70;61.00;;;;;;5021745;28;20286;-72
2022/03/23 07:10:02;;;;;;;28.80;17.27;;;6.80;61.10;;;;;;5022762;28;20219;-76
2022/03/23 07:12:27;;;;;;;27.90;19.40;;;6.80;61.10;;;;;;5009249;28;20200;-75
2022/03/23 07:14:53;;;;;;;27.47;18.23;;;6.90;60.90;;;;;;5018970;28;20211;-76
2022/03/23 07:17:18;;;;;;;25.30;16.90;;;7.00;60.90;;;;;;5011201;28;20240;-76
2022/03/23 07:19:44;;;;;;;27.57;17.00;;;7.10;60.80;;;;;;5006065;28;20193;-76
2022/03/23 07:22:11;;;;;;;28.60;19.07;;;7.20;60.60;;;;;;5007452;28;20177;-75
2022/03/23 07:24:37;;;;;;;25.30;18.53;;;7.30;60.10;;;;;;5010374;28;20217;-72
2022/03/23 07:27:03;;;;;;;32.43;19.20;;;7.40;59.30;;;;;;5012054;28;20255;-66
2022/03/23 07:29:28;;;;;;;29.93;19.27;;;7.50;59.80;;;;;;5010550;28;20228;-76
2022/03/23 07:31:53;;;;;;;32.43;19.97;;;7.60;59.10;;;;;;5020683;28;20511;-74
2022/03/23 07:34:19;;;;;;;33.87;19.63;;;7.70;59.20;;;;;;5016868;28;20243;-74
2022/03/23 07:36:47;;;;;;;25.37;18.73;;;7.80;59.60;;;;;;5016564;28;20172;-76
2022/03/23 07:39:20;;;;;;;27.00;16.20;;;7.90;59.10;;;;;;5013344;28;20969;-72
2022/03/23 07:41:50;;;;;;;26.07;17.60;;;8.00;58.00;;;;;;5007468;28;20221;-73
2022/03/23 07:44:18;;;;;;;28.03;16.97;;;8.20;56.70;;;;;;5013042;28;20204;-72
2022/03/23 07:46:46;;;;;;;23.63;16.83;;;8.40;56.10;;;;;;5018550;28;20609;-73
2022/03/23 07:49:14;;;;;;;28.03;17.10;;;8.50;55.20;;;;;;5018582;28;20216;-71
2022/03/23 07:51:39;;;;;;;24.93;16.87;;;8.60;55.30;;;;;;5014524;28;20193;-73
2022/03/23 07:54:06;;;;;;;23.50;16.53;;;8.70;55.00;;;;;;5022181;28;20275;-71
2022/03/23 07:56:32;;;;;;;27.23;15.23;;;8.80;54.70;;;;;;5020848;28;20719;-72
2022/03/23 07:58:58;;;;;;;29.30;17.47;;;8.90;53.90;;;;;;5015963;28;20525;-73
2022/03/23 08:01:23;;;;;;;27.23;16.77;;;9.20;53.30;;;;;;5013241;28;20220;-74
2022/03/23 08:03:49;;;;;;;22.47;16.17;;;9.20;52.70;;;;;;5017621;28;20205;-73
2022/03/23 08:06:14;;;;;;;25.70;18.13;;;9.20;53.50;;;;;;5019871;28;20243;-73
2022/03/23 08:08:40;;;;;;;28.40;16.43;;;9.30;53.00;;;;;;5006500;28;20264;-72
2022/03/23 08:11:05;;;;;;;24.30;16.20;;;9.30;52.60;;;;;;5005676;28;20206;-73
2022/03/23 08:13:31;;;;;;;26.27;15.97;;;9.40;52.70;;;;;;5012399;28;20515;-72
2022/03/23 08:15:56;;;;;;;25.90;15.80;;;9.50;51.90;;;;;;5005170;28;20203;-73
2022/03/23 08:18:22;;;;;;;22.10;16.90;;;9.60;51.60;;;;;;5019886;28;20632;-73
2022/03/23 08:20:50;;;;;;;23.90;17.37;;;9.60;51.90;;;;;;5002659;28;20735;-72
2022/03/23 08:23:16;;;;;;;24.53;16.47;;;9.80;51.80;;;;;;5018443;28;20189;-73
2022/03/23 08:25:43;;;;;;;26.63;15.83;;;9.90;50.90;;;;;;5006306;28;20642;-73
2022/03/23 08:28:10;;;;;;;22.80;15.30;;;9.90;50.80;;;;;;5022033;28;20217;-76
2022/03/23 08:30:36;;;;;;;21.47;15.40;;;10.00;49.80;;;;;;5007220;28;20222;-76
2022/03/23 08:33:03;;;;;;;19.67;15.00;;;10.10;49.30;;;;;;5012697;28;20220;-77
2022/03/23 08:35:30;;;;;;;21.27;15.80;;;10.30;48.90;;;;;;5004434;28;20241;-76
2022/03/23 08:37:56;;;;;;;24.27;15.90;;;10.50;48.50;;;;;;4997459;28;20200;-77
2022/03/23 08:40:22;;;;;;;24.10;16.67;;;10.50;48.50;;;;;;5006054;28;20224;-75
2022/03/23 08:42:48;;;;;;;25.17;16.07;;;10.40;48.40;;;;;;5021729;28;20226;-73
2022/03/23 08:45:15;;;;;;;22.00;14.77;;;10.60;48.10;;;;;;5004178;28;20211;-73
2022/03/23 08:47:41;;;;;;;29.53;19.07;;;10.90;47.10;;;;;;5005966;28;20203;-73
2022/03/23 08:50:09;;;;;;;21.17;16.07;;;10.90;47.90;;;;;;5022924;28;20279;-74
2022/03/23 08:52:35;;;;;;;19.03;14.67;;;10.90;47.60;;;;;;5020203;28;20199;-70
2022/03/23 08:55:04;;;;;;;23.47;14.93;;;10.90;47.30;;;;;;5013859;28;20205;-75
2022/03/23 08:57:29;;;;;;;18.33;15.43;;;10.90;47.40;;;;;;5018531;28;20201;-76
2022/03/23 08:59:55;;;;;;;22.00;15.83;;;11.00;47.40;;;;;;5003894;28;20968;-77
2022/03/23 09:02:20;;;;;;;21.20;16.23;;;11.00;46.60;;;;;;5008178;28;20370;-74
2022/03/23 09:04:45;;;;;;;21.33;16.93;;;11.10;46.90;;;;;;5019732;28;20235;-77
2022/03/23 09:07:11;;;;;;;26.13;17.40;;;11.10;46.50;;;;;;5023037;28;20222;-76
2022/03/23 09:09:36;;;;;;;24.40;16.90;;;11.20;46.70;;;;;;5009984;28;20611;-78
2022/03/23 09:12:02;;;;;;;22.17;16.57;;;11.50;46.00;;;;;;5016084;28;20184;-75
2022/03/23 09:14:28;;;;;;;18.53;14.80;;;11.60;45.70;;;;;;5012823;28;20200;-73
2022/03/23 09:16:53;;;;;;;22.77;15.90;;;11.70;45.30;;;;;;5018896;28;20233;-73
2022/03/23 09:19:20;;;;;;;22.57;14.93;;;11.80;45.90;;;;;;5012743;28;20204;-72
2022/03/23 09:21:50;;;;;;;26.77;16.27;;;11.70;46.60;;;;;;5005773;28;20696;-72
2022/03/23 09:24:15;;;;;;;20.50;15.97;;;11.90;45.80;;;;;;5019237;28;20196;-75
2022/03/23 09:26:41;;;;;;;20.87;16.37;;;12.10;45.80;;;;;;5010684;28;20294;-74
2022/03/23 09:29:07;;;;;;;21.90;15.73;;;12.10;44.70;;;;;;5021522;28;20294;-73
2022/03/23 09:31:33;;;;;;;25.77;17.60;;;12.20;44.30;;;;;;5015717;28;20205;-73
2022/03/23 09:34:02;;;;;;;21.50;16.60;;;12.20;44.60;;;;;;5018011;28;20191;-73
2022/03/23 09:39:12;;;;;;;22.53;16.23;;;12.60;44.10;;;;;;5005450;28;20190;-75
2022/03/23 09:41:38;;;;;;;24.90;17.23;;;12.70;44.40;;;;;;5018731;28;20199;-71
2022/03/23 09:44:05;;;;;;;28.23;16.33;;;12.90;44.20;;;;;;5012618;28;20211;-71
2022/03/23 09:46:32;;;;;;;19.70;14.20;;;12.80;44.40;;;;;;5011609;28;20199;-80
2022/03/23 09:48:58;;;;;;;20.93;15.57;;;13.00;43.20;;;;;;5018173;28;20212;-68
2022/03/23 09:51:25;;;;;;;21.80;15.30;;;13.30;43.20;;;;;;5016018;28;20253;-67
2022/03/23 09:53:52;;;;;;;21.83;16.00;;;13.20;43.80;;;;;;5020282;28;20242;-69
2022/03/23 09:56:19;;;;;;;23.67;16.30;;;13.50;44.10;;;;;;5016530;28;20200;-69
2022/03/23 09:58:44;;;;;;;21.40;16.83;;;13.70;43.30;;;;;;5018658;28;20200;-69
2022/03/23 10:01:28;;;;;;;21.87;16.50;;;13.70;43.20;;;;;;5019426;28;20192;-68
2022/03/23 10:04:12;;;;;;;21.93;17.43;;;13.80;42.40;;;;;;5018137;28;20366;-70
2022/03/23 10:07:06;;;;;;;22.30;17.30;;;14.20;42.20;;;;;;5017976;28;20215;-68
2022/03/23 10:10:09;;;;;;;21.23;16.90;;;14.20;42.40;;;;;;5014268;28;20217;-69
2022/03/23 10:13:12;;;;;;;20.27;16.37;;;14.40;41.50;;;;;;5007156;28;20597;-68
2022/03/23 10:16:28;;;;;;;21.37;16.60;;;14.40;43.00;;;;;;5017826;28;20184;-68
2022/03/23 10:19:00;;;;;;;22.53;17.73;;;14.20;42.60;;;;;;5015282;28;20208;-70
2022/03/23 10:21:35;;;;;;;24.60;18.30;;;14.60;41.50;;;;;;5021265;28;20196;-67
2022/03/23 10:24:00;;;;;;;21.63;17.70;;;14.60;41.20;;;;;;5019388;28;20188;-75
2022/03/23 10:26:28;;;;;;;36.63;18.13;;;14.80;41.50;;;;;;5025597;28;20227;-76
2022/03/23 10:28:54;;;;;;;29.40;19.77;;;14.70;41.90;;;;;;5015778;28;20211;-81
2022/03/23 10:31:23;;;;;;;22.40;17.83;;;14.90;42.30;;;;;;5014314;28;20198;-71
2022/03/23 10:34:07;;;;;;;23.13;17.40;;;14.90;41.90;;;;;;5020093;28;20565;-72
2022/03/23 10:36:33;;;;;;;24.93;18.17;;;15.10;42.40;;;;;;5022137;28;20188;-72
2022/03/23 10:39:04;;;;;;;24.57;17.53;;;15.20;39.80;;;;;;5017024;28;21547;-72
2022/03/23 10:41:30;;;;;;;23.17;19.67;;;15.40;40.30;;;;;;5020169;28;20187;-71
2022/03/23 10:43:56;;;;;;;23.00;18.53;;;15.40;40.60;;;;;;5021937;28;20227;-78
2022/03/23 10:46:22;;;;;;;19.07;16.33;;;15.50;41.60;;;;;;5021173;28;20642;-79
2022/03/23 10:48:50;;;;;;;22.17;17.17;;;15.70;40.80;;;;;;5014866;28;20258;-80
2022/03/23 10:51:26;;;;;;;25.53;16.70;;;15.90;39.60;;;;;;5016357;28;20330;-81
2022/03/23 10:53:52;;;;;;;22.43;17.53;;;16.10;41.10;;;;;;5010639;28;20195;-78
2022/03/23 10:56:29;;;;;;;22.67;17.33;;;16.20;39.40;;;;;;5014685;28;20199;-73
2022/03/23 10:59:25;;;;;;;29.20;18.13;;;16.40;38.60;;;;;;5021328;28;20196;-73
2022/03/23 11:02:07;;;;;;;24.50;18.10;;;16.60;41.00;;;;;;5021040;28;20184;-78
2022/03/23 11:04:47;;;;;;;22.73;15.77;;;16.90;39.70;;;;;;5025696;28;20184;-74
2022/03/23 11:07:28;;;;;;;19.17;15.77;;;17.10;38.00;;;;;;5016306;28;20290;-75
2022/03/23 11:18:12;;;;;;;25.23;17.80;;;17.50;36.60;;;;;;5014811;28;20321;-78
2022/03/23 11:20:42;;;;;;;21.90;16.17;;;17.70;37.80;;;;;;5016158;28;20189;-77
2022/03/23 11:23:19;;;;;;;22.57;17.97;;;17.90;36.70;;;;;;5014664;28;20705;-74
2022/03/23 11:25:46;;;;;;;23.00;16.97;;;18.00;37.10;;;;;;5016701;28;20232;-75
2022/03/23 11:28:16;;;;;;;21.67;17.27;;;18.10;36.70;;;;;;5016967;28;20678;-78
2022/03/23 11:30:43;;;;;;;24.07;17.33;;;18.20;36.30;;;;;;5027403;28;20246;-73
2022/03/23 11:33:15;;;;;;;23.57;17.23;;;18.30;36.20;;;;;;5009820;28;20694;-75
2022/03/23 11:35:46;;;;;;;22.20;17.63;;;18.50;36.30;;;;;;5018481;28;20189;-75
2022/03/23 11:38:12;;;;;;;23.13;16.40;;;18.70;35.90;;;;;;5007528;28;20213;-74
2022/03/23 11:40:42;;;;;;;21.63;16.70;;;18.80;35.60;;;;;;5027467;28;20200;-74
2022/03/23 11:43:10;;;;;;;19.83;16.10;;;18.80;35.50;;;;;;5015886;28;20213;-74
2022/03/23 11:45:38;;;;;;;22.27;15.67;;;18.90;36.40;;;;;;5013577;28;20776;-74
2022/03/23 11:48:41;;;;;;;21.93;17.93;;;19.00;35.30;;;;;;5007908;28;20264;-75
2022/03/23 11:51:44;;;;;;;18.70;16.70;;;19.20;35.30;;;;;;5023332;28;20214;-75
2022/03/23 11:55:37;;;;;;;20.03;17.70;;;19.30;34.60;;;;;;5010201;28;20193;-77
2022/03/23 11:57:18;;;;;;;19.33;17.23;;;19.70;34.10;;;;;;5002477;28;20196;-75
2022/03/23 11:59:45;;;;;;;24.30;17.30;;;20.00;33.30;;;;;;5024080;28;20664;-75
2022/03/23 12:02:15;;;;;;;19.37;17.37;;;19.90;33.70;;;;;;5020144;28;20199;-74
2022/03/23 12:04:41;;;;;;;19.10;16.37;;;20.00;33.80;;;;;;5019271;28;20286;-75
2022/03/23 12:07:08;;;;;;;19.77;16.13;;;20.10;34.90;;;;;;5020194;28;20298;-75
2022/03/23 12:09:36;;;;;;;20.37;15.53;;;20.10;33.20;;;;;;5013272;28;20238;-74
2022/03/23 12:12:33;;;;;;;19.30;15.60;;;20.00;34.60;;;;;;5012051;28;20901;-81
2022/03/23 12:15:23;;;;;;;18.20;15.47;;;20.20;33.40;;;;;;5024533;28;20180;-74
2022/03/23 12:17:57;;;;;;;19.40;16.33;;;20.40;33.40;;;;;;5015635;28;20655;-72
2022/03/23 12:20:37;;;;;;;21.87;16.30;;;20.50;34.50;;;;;;5014946;28;20194;-76
2022/03/23 12:23:11;;;;;;;17.13;15.53;;;20.80;33.60;;;;;;5009015;28;20237;-77
2022/03/23 12:25:56;;;;;;;19.70;16.90;;;21.10;33.50;;;;;;5007666;28;20242;-75
2022/03/23 12:28:43;;;;;;;17.67;15.70;;;21.20;32.50;;;;;;5019976;28;20657;-75
2022/03/23 12:31:10;;;;;;;18.40;15.73;;;21.30;32.50;;;;;;5008589;28;20172;-72
2022/03/23 12:34:03;;;;;;;18.60;16.70;;;21.30;32.30;;;;;;5023252;28;20207;-70
2022/03/23 12:39:34;;;;;;;21.17;17.07;;;21.50;32.70;;;;;;5018908;28;20194;-74
2022/03/23 12:42:16;;;;;;;19.90;16.57;;;21.50;33.70;;;;;;5019134;28;20195;-75
2022/03/23 12:44:49;;;;;;;20.93;17.37;;;21.70;32.40;;;;;;5019596;28;20198;-75
2022/03/23 12:47:16;;;;;;;19.50;17.00;;;21.90;32.50;;;;;;5019785;28;20195;-74
2022/03/23 12:58:12;;;;;;;24.67;19.73;;;22.30;33.20;;;;;;5020439;28;20285;-72
2022/03/23 13:00:51;;;;;;;23.60;19.03;;;22.60;33.50;;;;;;5018443;28;20207;-72
2022/03/23 13:03:18;;;;;;;23.50;18.77;;;22.60;34.00;;;;;;5007546;28;20214;-73
2022/03/23 13:05:58;;;;;;;25.50;21.57;;;22.60;32.90;;;;;;5017572;28;20200;-71
2022/03/23 13:08:28;;;;;;;27.37;20.37;;;22.40;32.80;;;;;;5016829;28;20294;-85
2022/03/23 13:10:56;;;;;;;21.67;19.37;;;22.30;32.50;;;;;;5016686;28;20718;-79
2022/03/23 13:13:22;;;;;;;24.93;19.83;;;22.50;32.60;;;;;;5017348;28;20222;-71